Weather reports worldwide

Advertisment
Matera, Italy (16314): temperature & dewpoint: 29.03.2020 02:00:00 - 04.04.2020 02:00:00 (CEST)Matera, Italy (16314): wind speed: 29.03.2020 02:00:00 - 04.04.2020 02:00:00 (CEST)Matera, Italy (16314): wind direction: 29.03.2020 02:00:00 - 04.04.2020 02:00:00 (CEST)Matera, Italy (16314): reduced air pressure: 29.03.2020 02:00:00 - 04.04.2020 02:00:00 (CEST)Matera, Italy (16314): precipitation: 29.03.2020 02:00:00 - 04.04.2020 02:00:00 (CEST)
Date & Time tt [°C] td [°C] ff [km/h] ff [kn] dd ppp [hPa] rr [mm]
04.04.2020 02:00:00 - - - - - - -
04.04.2020 01:00:00 4,4 3,0 39 21 NE 1016,0 -
04.04.2020 00:00:00 4,9 3,1 18 10 NNE 1016,2 -
03.04.2020 23:00:00 5,2 2,5 15 8 NNE 1016,2 -
03.04.2020 22:00:00 6,1 2,5 15 8 NE 1015,8 -
03.04.2020 21:00:00 6,8 2,6 15 8 ENE 1015,7 -
03.04.2020 20:00:00 8,0 3,2 21 11 E 1014,7 0,0
03.04.2020 19:00:00 8,8 4,0 5 3 SE 1014,2 -
03.04.2020 18:00:00 8,3 5,5 4 2 S 1014,3 -
03.04.2020 17:00:00 8,0 5,4 18 10 SW 1014,4 -
03.04.2020 16:00:00 9,3 4,3 9 5 SW 1014,1 -
03.04.2020 15:00:00 9,6 4,3 8 4 SSW 1014,1 -
03.04.2020 14:00:00 9,8 4,3 16 9 SW 1014,8 0,0
03.04.2020 13:00:00 10,0 3,4 15 8 SW 1014,9 -
03.04.2020 12:00:00 9,8 2,8 8 4 SSE 1014,8 -
03.04.2020 11:00:00 9,1 3,6 15 8 SW 1015,3 -
03.04.2020 10:00:00 8,0 3,4 16 9 WSW 1015,2 -
03.04.2020 09:00:00 5,8 2,0 13 7 SSW 1015,6 -
03.04.2020 08:00:00 5,0 1,8 8 4 SW 1015,3 0,0
03.04.2020 07:00:00 4,4 1,0 5 3 S 1015,2 -
03.04.2020 06:00:00 4,1 1,1 5 3 S 1015,4 -
03.04.2020 05:00:00 3,9 1,4 11 6 WSW 1015,4 -
03.04.2020 04:00:00 4,4 2,2 13 7 S 1015,6 -
03.04.2020 03:00:00 4,8 2,8 13 7 SSW 1015,9 -
03.04.2020 02:00:00 4,6 2,4 18 10 SW 1016,3 0,0
03.04.2020 01:00:00 4,0 0,8 16 9 WSW 1016,9 -
03.04.2020 00:00:00 4,7 0,6 5 3 SW 1016,8 -
02.04.2020 23:00:00 5,2 0,9 8 4 SE 1016,7 -
02.04.2020 22:00:00 5,2 1,6 8 4 ESE 1016,8 -
02.04.2020 21:00:00 5,2 1,6 8 4 ESE 1016,7 -
02.04.2020 20:00:00 5,7 0,8 15 8 ESE 1016,0 0,0
02.04.2020 19:00:00 8,2 0,8 5 3 SE 1015,0 -
02.04.2020 18:00:00 9,6 -0,7 9 5 ENE 1014,8 -
02.04.2020 17:00:00 9,5 -0,5 4 2 E 1015,0 -
02.04.2020 16:00:00 9,4 -0,3 4 2 E 1015,6 -
02.04.2020 15:00:00 9,4 -0,6 13 7 E 1016,0 -
02.04.2020 14:00:00 9,0 -0,4 11 6 NNE 1016,5 0,0
02.04.2020 13:00:00 8,1 -0,5 8 4 E 1016,7 -
02.04.2020 12:00:00 7,3 -1,2 15 8 NNE 1017,2 -
02.04.2020 11:00:00 6,8 -0,7 16 9 NNE 1017,6 -
02.04.2020 10:00:00 4,7 -1,4 21 11 N 1017,9 -
02.04.2020 09:00:00 2,5 -3,1 22 12 N 1018,0 -
02.04.2020 08:00:00 1,8 -4,2 28 15 N 1018,0 0,0
02.04.2020 07:00:00 0,9 -4,8 31 17 N 1018,0 -
02.04.2020 06:00:00 0,7 -5,0 31 17 N 1017,9 -
02.04.2020 05:00:00 0,5 -4,8 37 20 N 1018,1 -
02.04.2020 04:00:00 0,3 -3,9 28 15 NNW 1018,1 -
02.04.2020 03:00:00 0,7 -3,6 41 22 N 1017,7 -
02.04.2020 02:00:00 1,5 -4,2 46 25 N 1018,0 0,0
02.04.2020 01:00:00 1,7 -4,3 44 24 N 1018,4 -
02.04.2020 00:00:00 1,6 -5,0 48 26 N 1018,7 -
01.04.2020 23:00:00 1,8 -5,0 41 22 N 1018,6 -
01.04.2020 22:00:00 2,6 -4,5 55 30 NNE 1017,8 -
01.04.2020 21:00:00 3,5 -3,6 54 29 N 1017,8 -
01.04.2020 20:00:00 3,4 -2,8 31 17 N 1017,3 -
01.04.2020 19:00:00 5,0 -3,4 46 25 NNE 1016,6 -
01.04.2020 18:00:00 6,0 -2,2 55 30 NE 1016,0 -
01.04.2020 17:00:00 5,9 -2,1 57 31 NNE 1015,7 -
01.04.2020 16:00:00 5,3 -2,6 59 32 NNE 1015,8 -
01.04.2020 15:00:00 5,8 -1,0 67 36 NNE 1015,5 -
01.04.2020 14:00:00 3,5 0,0 72 39 NNE 1016,5 -
01.04.2020 13:00:00 5,6 -1,4 72 39 NNE 1015,3 -
01.04.2020 12:00:00 4,2 0,5 59 32 NNE 1015,7 -
01.04.2020 11:00:00 2,6 1,1 63 34 NNE 1016,1 -
01.04.2020 10:00:00 1,2 1,1 48 26 N 1016,5 -
01.04.2020 09:00:00 0,5 0,5 57 31 N 1015,9 -
01.04.2020 08:00:00 -0,1 -0,1 46 25 N 1017,0 -
01.04.2020 07:00:00 -0,2 -0,3 41 22 N 1017,0 -
01.04.2020 06:00:00 -0,3 -0,6 41 22 N 1017,2 -
01.04.2020 05:00:00 0,0 -0,3 37 20 N 1017,5 -
01.04.2020 04:00:00 0,1 -0,3 34 18 N 1017,6 -
01.04.2020 03:00:00 2,0 1,6 44 24 N 1017,7 -
01.04.2020 02:00:00 3,1 2,7 37 20 N 1017,8 -
01.04.2020 01:00:00 3,7 3,1 44 24 NNE 1018,2 -
01.04.2020 00:00:00 4,1 3,5 41 22 NE 1018,9 -
31.03.2020 23:00:00 4,3 3,9 39 21 NNE 1019,0 -
31.03.2020 22:00:00 4,5 3,9 48 26 NNE 1019,4 -
31.03.2020 21:00:00 6,1 5,2 41 22 NE 1019,1 -
31.03.2020 20:00:00 6,8 4,8 42 23 NE 1018,5 0,0
31.03.2020 19:00:00 7,6 4,3 41 22 NE 1018,0 -
31.03.2020 18:00:00 8,4 5,6 35 19 ENE 1017,6 -
31.03.2020 17:00:00 9,4 5,7 39 21 NE 1017,3 -
31.03.2020 16:00:00 9,9 5,4 61 33 NE 1017,0 -
31.03.2020 15:00:00 10,7 6,2 63 34 NE 1016,6 -
31.03.2020 14:00:00 12,6 7,0 57 31 NNE 1016,4 0,0
31.03.2020 13:00:00 12,8 8,2 50 27 N 1016,5 -
31.03.2020 12:00:00 11,4 7,3 46 25 N 1017,1 -
31.03.2020 11:00:00 10,8 8,2 46 25 N 1017,0 -
31.03.2020 10:00:00 10,0 8,6 37 20 N 1016,9 -
31.03.2020 09:00:00 8,5 8,3 31 17 N 1016,5 -
31.03.2020 08:00:00 7,5 7,2 34 18 N 1016,5 0,0
31.03.2020 07:00:00 7,3 6,7 29 16 N 1016,1 -
31.03.2020 06:00:00 7,5 7,4 34 18 N 1015,8 -
31.03.2020 05:00:00 7,2 7,2 28 15 N 1015,8 -
31.03.2020 04:00:00 6,8 6,2 26 14 N 1015,7 -
31.03.2020 03:00:00 7,1 3,8 29 16 N 1015,7 -
31.03.2020 02:00:00 7,8 4,0 29 16 N 1015,7 0,0
31.03.2020 01:00:00 8,4 5,6 18 10 N 1015,6 -
31.03.2020 00:00:00 9,1 5,2 21 11 NNE 1015,3 -
30.03.2020 23:00:00 9,8 8,1 18 10 N 1014,9 -
30.03.2020 22:00:00 10,2 8,6 15 8 N 1014,7 -
30.03.2020 21:00:00 10,6 8,5 9 5 NNE 1014,3 -
30.03.2020 20:00:00 10,9 8,3 8 4 NE 1013,7 0,0
30.03.2020 19:00:00 11,7 8,7 18 10 E 1013,3 -
30.03.2020 18:00:00 12,3 7,9 22 12 ENE 1012,7 -
30.03.2020 17:00:00 14,0 7,5 21 11 ESE 1012,1 -
30.03.2020 16:00:00 14,9 4,5 2 1 ESE 1012,1 -
30.03.2020 15:00:00 15,2 5,0 13 7 E 1012,4 -
30.03.2020 14:00:00 14,9 4,2 9 5 E 1012,9 0,0
30.03.2020 13:00:00 14,5 3,2 4 2 WSW 1013,2 -
30.03.2020 12:00:00 13,7 5,5 8 4 E 1013,8 -
30.03.2020 11:00:00 12,7 6,9 15 8 E 1014,1 -
30.03.2020 10:00:00 10,9 7,7 8 4 ENE 1014,3 -
30.03.2020 09:00:00 9,8 8,4 15 8 NNE 1014,0 -
30.03.2020 08:00:00 8,0 6,9 11 6 N 1014,2 0,0
30.03.2020 07:00:00 7,8 6,4 5 3 N 1014,0 -
30.03.2020 06:00:00 7,9 6,3 4 2 N 1014,0 -
30.03.2020 05:00:00 6,7 5,2 9 5 WNW 1014,4 -
30.03.2020 04:00:00 7,5 5,8 8 4 WNW 1014,7 -
30.03.2020 03:00:00 7,0 4,8 9 5 W 1015,0 -
30.03.2020 02:00:00 7,2 5,8 2 1 WNW 1015,0 0,0
30.03.2020 01:00:00 7,6 5,0 8 4 W 1015,3 -
30.03.2020 00:00:00 8,1 5,7 5 3 W 1015,5 -
29.03.2020 23:00:00 8,7 6,1 9 5 WSW 1015,8 -
29.03.2020 22:00:00 9,7 6,4 0 0 N 1015,4 -
29.03.2020 21:00:00 9,7 6,0 2 1 SW 1015,3 -
29.03.2020 20:00:00 10,4 7,2 5 3 WSW 1014,7 0,0
29.03.2020 19:00:00 11,7 7,8 5 3 SW 1013,9 -
29.03.2020 18:00:00 13,1 8,1 5 3 SW 1013,4 -
29.03.2020 17:00:00 14,2 6,7 18 10 ESE 1013,0 -
29.03.2020 16:00:00 14,1 5,9 13 7 ESE 1013,3 -
29.03.2020 15:00:00 13,7 6,0 11 6 ESE 1013,6 -
29.03.2020 14:00:00 13,2 6,0 8 4 E 1014,4 0,0
29.03.2020 13:00:00 13,7 6,7 11 6 ESE 1014,5 -
29.03.2020 12:00:00 12,5 6,3 15 8 NE 1015,0 -
29.03.2020 11:00:00 11,6 6,9 15 8 NNE 1015,2 -
29.03.2020 10:00:00 10,0 7,7 22 12 N 1015,6 -
29.03.2020 09:00:00 8,2 7,9 24 13 NNE 1015,7 -
29.03.2020 08:00:00 6,7 6,3 21 11 N 1016,2 -
29.03.2020 07:00:00 6,8 6,2 26 14 N 1016,0 -
29.03.2020 06:00:00 6,9 6,9 28 15 N 1016,1 -
29.03.2020 05:00:00 6,1 6,0 21 11 N 1016,4 -
29.03.2020 04:00:00 5,9 5,6 15 8 N 1016,7 -
29.03.2020 03:00:00 6,1 6,0 21 11 N 1016,8 -
29.03.2020 02:00:00 - - - - - - -

tt = temperature
td = dewpoint
ff = wind speed
dd = wind direction
ppp = reduced air pressure
rr = precipitation

Next stations